首页
METAR-TAF:

METAR-TAF

机场 :

朗塞斯顿, 澳大利亚

纬度: 41-32S, 经度: 147-12E, 海拔: 171米

当前天气观测

该预报发布于43分钟前的01:30 UTC
风速14节,风向北转西北
温度 12°C
湿度 71%
气压 1008 hPa
能见度10公里或以上
阴天层高于4400英尺

METAR: YMLT 310130Z AUTO 33014KT 9999 // OVC044 12/07 Q1008 RF00.0/000.0

时间: 12:13 (02:13 UTC)

预报

该预报发布于2小时和56分钟前的23:17 UTC
预报有效从31日的 00点(UTC)到 01日的 00点(UTC)
风速14节,风向北转西北
能见度10公里或以上
少量云层高于3000英尺
从 31日的 0600点(UTC)
风速12节,风向北转西北
能见度10公里或以上
少量云层高于2000英尺
多云层高于3500英尺
小阵雨
成为
从 31日的 09点(UTC)到 31日的 11点(UTC)
风速8节,风向
能见度10公里或以上
散云层高于1500英尺
多云层高于2500英尺
小阵雨
短暂存在
从 31日的 10点(UTC)到 01日的 00点(UTC)
能見度: 5000
多云层高于1500英尺
阵雨

TAF: YMLT 302317Z 3100/0100 34014KT 9999 FEW030 FM310600 34012KT 9999 -SHRA FEW020 BKN035 BECMG 3109/3111 35008KT 9999 -SHRA SCT015 BKN025 TEMPO 3110/0100 5000 SHRA BKN015

超过4000个机场的气象观测和天气预报(METAR&TAF报告)。

可查询的气象台以黄色和红色小点在地图上表示。

将鼠标移到小点上方,可查看气象台名称。

然后点击查看天气观测和预报。

如需切换地图:点击带黑十字的绿色按钮放大地图;点击带横线的绿色按钮缩小地图;或者点击绿色箭头查看邻近地区的地图。


METAR-TAF: